sensor_id;sensor_type;location;lat;lon;timestamp;temperature;humidity
17170;DHT22;8700;48.222;16.342;2022-10-17T00:02:41;15.20;99.90
17170;DHT22;8700;48.222;16.342;2022-10-17T00:06:05;15.30;99.90
17170;DHT22;8700;48.222;16.342;2022-10-17T00:09:28;15.30;99.90
17170;DHT22;8700;48.222;16.342;2022-10-17T00:12:50;15.10;99.90
17170;DHT22;8700;48.222;16.342;2022-10-17T00:16:11;15.10;99.90
17170;DHT22;8700;48.222;16.342;2022-10-17T00:19:33;15.10;99.90
17170;DHT22;8700;48.222;16.342;2022-10-17T00:22:54;15.20;99.90
17170;DHT22;8700;48.222;16.342;2022-10-17T00:26:18;15.10;99.90
17170;DHT22;8700;48.222;16.342;2022-10-17T00:29:39;15.10;99.90
17170;DHT22;8700;48.222;16.342;2022-10-17T00:33:01;15.00;99.90
17170;DHT22;8700;48.222;16.342;2022-10-17T00:36:23;15.00;99.90
17170;DHT22;8700;48.222;16.342;2022-10-17T00:39:45;15.00;99.90
17170;DHT22;8700;48.222;16.342;2022-10-17T00:43:14;15.00;99.90
17170;DHT22;8700;48.222;16.342;2022-10-17T00:46:37;14.90;99.90
17170;DHT22;8700;48.222;16.342;2022-10-17T00:49:59;14.90;99.90
17170;DHT22;8700;48.222;16.342;2022-10-17T00:53:20;14.90;99.90
17170;DHT22;8700;48.222;16.342;2022-10-17T00:56:41;14.90;99.90
17170;DHT22;8700;48.222;16.342;2022-10-17T01:00:07;14.80;99.90
17170;DHT22;8700;48.222;16.342;2022-10-17T01:03:29;14.70;99.90
17170;DHT22;8700;48.222;16.342;2022-10-17T01:06:51;14.70;99.90
17170;DHT22;8700;48.222;16.342;2022-10-17T01:10:12;14.70;99.90
17170;DHT22;8700;48.222;16.342;2022-10-17T01:13:39;14.60;99.90
17170;DHT22;8700;48.222;16.342;2022-10-17T01:17:08;14.50;99.90
17170;DHT22;8700;48.222;16.342;2022-10-17T01:20:58;14.50;99.90
17170;DHT22;8700;48.222;16.342;2022-10-17T01:24:46;14.60;99.90
17170;DHT22;8700;48.222;16.342;2022-10-17T01:28:30;14.50;99.90
17170;DHT22;8700;48.222;16.342;2022-10-17T01:31:56;14.50;99.90
17170;DHT22;8700;48.222;16.342;2022-10-17T01:35:21;14.50;99.90
17170;DHT22;8700;48.222;16.342;2022-10-17T01:38:48;14.40;99.90
17170;DHT22;8700;48.222;16.342;2022-10-17T01:42:14;14.30;99.90
17170;DHT22;8700;48.222;16.342;2022-10-17T01:45:40;14.30;99.90
17170;DHT22;8700;48.222;16.342;2022-10-17T01:49:06;14.30;99.90
17170;DHT22;8700;48.222;16.342;2022-10-17T01:52:34;14.30;99.90
17170;DHT22;8700;48.222;16.342;2022-10-17T01:55:59;14.30;99.90
17170;DHT22;8700;48.222;16.342;2022-10-17T01:59:24;14.30;99.90
17170;DHT22;8700;48.222;16.342;2022-10-17T02:02:48;14.40;99.90
17170;DHT22;8700;48.222;16.342;2022-10-17T02:06:13;14.40;99.90
17170;DHT22;8700;48.222;16.342;2022-10-17T02:09:34;14.40;99.90
17170;DHT22;8700;48.222;16.342;2022-10-17T02:12:59;14.30;99.90
17170;DHT22;8700;48.222;16.342;2022-10-17T02:16:29;14.40;99.90
17170;DHT22;8700;48.222;16.342;2022-10-17T02:19:58;14.30;99.90
17170;DHT22;8700;48.222;16.342;2022-10-17T02:23:29;14.40;99.90
17170;DHT22;8700;48.222;16.342;2022-10-17T02:26:59;14.30;99.90
17170;DHT22;8700;48.222;16.342;2022-10-17T02:30:28;14.30;99.90
17170;DHT22;8700;48.222;16.342;2022-10-17T02:33:54;14.20;99.90
17170;DHT22;8700;48.222;16.342;2022-10-17T02:37:20;14.20;99.90
17170;DHT22;8700;48.222;16.342;2022-10-17T02:40:45;14.10;99.90
17170;DHT22;8700;48.222;16.342;2022-10-17T02:44:08;14.20;99.90
17170;DHT22;8700;48.222;16.342;2022-10-17T02:47:33;14.20;99.90
17170;DHT22;8700;48.222;16.342;2022-10-17T02:51:01;14.20;99.90
17170;DHT22;8700;48.222;16.342;2022-10-17T02:54:32;14.20;99.90
17170;DHT22;8700;48.222;16.342;2022-10-17T02:57:59;14.20;99.90
17170;DHT22;8700;48.222;16.342;2022-10-17T03:01:24;14.10;99.90
17170;DHT22;8700;48.222;16.342;2022-10-17T03:04:46;14.10;99.90
17170;DHT22;8700;48.222;16.342;2022-10-17T03:08:07;14.10;99.90
17170;DHT22;8700;48.222;16.342;2022-10-17T03:11:30;14.10;99.90
17170;DHT22;8700;48.222;16.342;2022-10-17T03:14:53;14.10;99.90
17170;DHT22;8700;48.222;16.342;2022-10-17T03:18:15;14.00;99.90
17170;DHT22;8700;48.222;16.342;2022-10-17T03:21:36;14.10;99.90
17170;DHT22;8700;48.222;16.342;2022-10-17T03:24:58;14.10;99.90
17170;DHT22;8700;48.222;16.342;2022-10-17T03:28:19;14.00;99.90
17170;DHT22;8700;48.222;16.342;2022-10-17T03:31:41;13.90;99.90
17170;DHT22;8700;48.222;16.342;2022-10-17T03:35:04;13.90;99.90
17170;DHT22;8700;48.222;16.342;2022-10-17T03:38:25;13.90;99.90
17170;DHT22;8700;48.222;16.342;2022-10-17T03:41:46;13.80;99.90
17170;DHT22;8700;48.222;16.342;2022-10-17T03:45:08;13.80;99.90
17170;DHT22;8700;48.222;16.342;2022-10-17T03:48:31;13.80;99.90
17170;DHT22;8700;48.222;16.342;2022-10-17T03:51:53;13.70;99.90
17170;DHT22;8700;48.222;16.342;2022-10-17T03:55:14;13.70;99.90
17170;DHT22;8700;48.222;16.342;2022-10-17T03:58:36;13.70;99.90
17170;DHT22;8700;48.222;16.342;2022-10-17T04:01:57;13.70;99.90
17170;DHT22;8700;48.222;16.342;2022-10-17T04:05:20;13.70;99.90
17170;DHT22;8700;48.222;16.342;2022-10-17T04:08:41;13.60;99.90
17170;DHT22;8700;48.222;16.342;2022-10-17T04:12:02;13.60;99.90
17170;DHT22;8700;48.222;16.342;2022-10-17T04:15:24;13.60;99.90
17170;DHT22;8700;48.222;16.342;2022-10-17T04:18:45;13.60;99.90
17170;DHT22;8700;48.222;16.342;2022-10-17T04:22:08;13.50;99.90
17170;DHT22;8700;48.222;16.342;2022-10-17T04:25:29;13.50;99.90
17170;DHT22;8700;48.222;16.342;2022-10-17T04:28:51;13.60;99.90
17170;DHT22;8700;48.222;16.342;2022-10-17T04:32:12;13.60;99.90
17170;DHT22;8700;48.222;16.342;2022-10-17T04:35:34;13.60;99.90
17170;DHT22;8700;48.222;16.342;2022-10-17T04:38:56;13.60;99.90
17170;DHT22;8700;48.222;16.342;2022-10-17T04:42:18;13.60;99.90
17170;DHT22;8700;48.222;16.342;2022-10-17T04:45:39;13.50;99.90
17170;DHT22;8700;48.222;16.342;2022-10-17T04:49:00;13.50;99.90
17170;DHT22;8700;48.222;16.342;2022-10-17T04:52:22;13.50;99.90
17170;DHT22;8700;48.222;16.342;2022-10-17T04:55:45;13.50;99.90
17170;DHT22;8700;48.222;16.342;2022-10-17T04:59:07;13.50;99.90
17170;DHT22;8700;48.222;16.342;2022-10-17T05:02:28;13.50;99.90
17170;DHT22;8700;48.222;16.342;2022-10-17T05:05:50;13.50;99.90
17170;DHT22;8700;48.222;16.342;2022-10-17T05:09:11;13.40;99.90
17170;DHT22;8700;48.222;16.342;2022-10-17T05:12:34;13.40;99.90
17170;DHT22;8700;48.222;16.342;2022-10-17T05:15:58;13.40;99.90
17170;DHT22;8700;48.222;16.342;2022-10-17T05:19:19;13.30;99.90
17170;DHT22;8700;48.222;16.342;2022-10-17T05:22:41;13.30;99.90
17170;DHT22;8700;48.222;16.342;2022-10-17T05:26:02;13.30;99.90
17170;DHT22;8700;48.222;16.342;2022-10-17T05:29:25;13.40;99.90
17170;DHT22;8700;48.222;16.342;2022-10-17T05:32:46;13.40;99.90
17170;DHT22;8700;48.222;16.342;2022-10-17T05:36:07;13.40;99.90
17170;DHT22;8700;48.222;16.342;2022-10-17T05:39:29;13.40;99.90
17170;DHT22;8700;48.222;16.342;2022-10-17T05:42:51;13.40;99.90
17170;DHT22;8700;48.222;16.342;2022-10-17T05:46:13;13.40;99.90
17170;DHT22;8700;48.222;16.342;2022-10-17T05:49:35;13.40;99.90
17170;DHT22;8700;48.222;16.342;2022-10-17T05:52:56;13.50;99.90
17170;DHT22;8700;48.222;16.342;2022-10-17T05:56:17;13.60;99.90
17170;DHT22;8700;48.222;16.342;2022-10-17T05:59:39;13.70;99.90
17170;DHT22;8700;48.222;16.342;2022-10-17T06:03:02;13.70;99.90
17170;DHT22;8700;48.222;16.342;2022-10-17T06:06:23;13.70;99.90
17170;DHT22;8700;48.222;16.342;2022-10-17T06:09:44;13.80;99.90
17170;DHT22;8700;48.222;16.342;2022-10-17T06:13:06;13.80;99.90
17170;DHT22;8700;48.222;16.342;2022-10-17T06:16:27;13.90;99.90
17170;DHT22;8700;48.222;16.342;2022-10-17T06:19:50;14.00;99.90
17170;DHT22;8700;48.222;16.342;2022-10-17T06:23:11;14.20;99.90
17170;DHT22;8700;48.222;16.342;2022-10-17T06:26:33;14.30;99.90
17170;DHT22;8700;48.222;16.342;2022-10-17T06:29:54;14.50;99.90
17170;DHT22;8700;48.222;16.342;2022-10-17T06:33:15;14.50;99.90
17170;DHT22;8700;48.222;16.342;2022-10-17T06:36:38;14.60;99.90
17170;DHT22;8700;48.222;16.342;2022-10-17T06:39:59;14.40;99.90
17170;DHT22;8700;48.222;16.342;2022-10-17T06:43:21;14.40;99.90
17170;DHT22;8700;48.222;16.342;2022-10-17T06:46:43;14.60;99.90
17170;DHT22;8700;48.222;16.342;2022-10-17T06:50:06;14.50;99.90
17170;DHT22;8700;48.222;16.342;2022-10-17T06:53:30;14.70;99.90
17170;DHT22;8700;48.222;16.342;2022-10-17T06:56:52;14.80;99.90
17170;DHT22;8700;48.222;16.342;2022-10-17T07:00:15;14.50;99.90
17170;DHT22;8700;48.222;16.342;2022-10-17T07:03:36;14.70;99.90
17170;DHT22;8700;48.222;16.342;2022-10-17T07:06:57;14.70;99.90
17170;DHT22;8700;48.222;16.342;2022-10-17T07:10:23;14.90;99.90
17170;DHT22;8700;48.222;16.342;2022-10-17T07:13:46;14.80;99.90
17170;DHT22;8700;48.222;16.342;2022-10-17T07:17:08;14.70;99.90
17170;DHT22;8700;48.222;16.342;2022-10-17T07:20:29;14.70;99.90
17170;DHT22;8700;48.222;16.342;2022-10-17T07:23:51;14.90;99.90
17170;DHT22;8700;48.222;16.342;2022-10-17T07:27:14;15.20;99.90
17170;DHT22;8700;48.222;16.342;2022-10-17T07:30:35;15.20;99.90
17170;DHT22;8700;48.222;16.342;2022-10-17T07:34:00;14.90;99.90
17170;DHT22;8700;48.222;16.342;2022-10-17T07:37:22;15.20;99.90
17170;DHT22;8700;48.222;16.342;2022-10-17T07:40:43;15.20;99.90
17170;DHT22;8700;48.222;16.342;2022-10-17T07:44:06;15.60;99.90
17170;DHT22;8700;48.222;16.342;2022-10-17T07:47:27;15.80;99.90
17170;DHT22;8700;48.222;16.342;2022-10-17T07:50:50;15.90;99.90
17170;DHT22;8700;48.222;16.342;2022-10-17T07:54:20;16.00;99.90
17170;DHT22;8700;48.222;16.342;2022-10-17T07:57:41;16.20;99.90
17170;DHT22;8700;48.222;16.342;2022-10-17T08:01:06;16.40;99.90
17170;DHT22;8700;48.222;16.342;2022-10-17T08:04:29;16.50;99.90
17170;DHT22;8700;48.222;16.342;2022-10-17T08:07:51;16.60;99.90
17170;DHT22;8700;48.222;16.342;2022-10-17T08:11:13;16.60;99.90
17170;DHT22;8700;48.222;16.342;2022-10-17T08:14:35;16.80;99.90
17170;DHT22;8700;48.222;16.342;2022-10-17T08:17:59;16.60;99.90
17170;DHT22;8700;48.222;16.342;2022-10-17T08:21:21;16.70;99.90
17170;DHT22;8700;48.222;16.342;2022-10-17T08:24:42;16.90;99.90
17170;DHT22;8700;48.222;16.342;2022-10-17T08:28:05;16.80;99.90
17170;DHT22;8700;48.222;16.342;2022-10-17T08:31:27;17.10;99.90
17170;DHT22;8700;48.222;16.342;2022-10-17T08:34:51;17.40;99.90
17170;DHT22;8700;48.222;16.342;2022-10-17T08:38:13;17.40;99.90
17170;DHT22;8700;48.222;16.342;2022-10-17T08:41:56;17.60;99.90
17170;DHT22;8700;48.222;16.342;2022-10-17T08:45:26;17.50;99.90
17170;DHT22;8700;48.222;16.342;2022-10-17T08:48:51;17.80;99.90
17170;DHT22;8700;48.222;16.342;2022-10-17T08:52:20;17.80;99.90
17170;DHT22;8700;48.222;16.342;2022-10-17T08:55:46;18.00;99.90
17170;DHT22;8700;48.222;16.342;2022-10-17T08:59:10;18.30;99.90
17170;DHT22;8700;48.222;16.342;2022-10-17T09:02:51;18.10;99.90
17170;DHT22;8700;48.222;16.342;2022-10-17T09:06:20;18.00;99.90
17170;DHT22;8700;48.222;16.342;2022-10-17T09:09:57;18.30;99.90
17170;DHT22;8700;48.222;16.342;2022-10-17T09:13:33;18.60;99.90
17170;DHT22;8700;48.222;16.342;2022-10-17T09:17:14;18.70;99.90
17170;DHT22;8700;48.222;16.342;2022-10-17T09:20:39;18.60;99.90
17170;DHT22;8700;48.222;16.342;2022-10-17T09:24:06;19.00;99.90
17170;DHT22;8700;48.222;16.342;2022-10-17T09:27:34;19.10;99.90
17170;DHT22;8700;48.222;16.342;2022-10-17T09:31:00;19.30;99.90
17170;DHT22;8700;48.222;16.342;2022-10-17T09:34:24;19.40;99.90
17170;DHT22;8700;48.222;16.342;2022-10-17T09:37:48;19.90;99.90
17170;DHT22;8700;48.222;16.342;2022-10-17T09:41:17;20.40;99.90
17170;DHT22;8700;48.222;16.342;2022-10-17T09:44:48;21.20;99.90
17170;DHT22;8700;48.222;16.342;2022-10-17T09:48:17;22.70;99.90
17170;DHT22;8700;48.222;16.342;2022-10-17T09:51:41;23.50;99.90
17170;DHT22;8700;48.222;16.342;2022-10-17T09:55:14;24.70;99.90
17170;DHT22;8700;48.222;16.342;2022-10-17T09:58:41;25.40;99.90
17170;DHT22;8700;48.222;16.342;2022-10-17T10:02:16;25.30;99.90
17170;DHT22;8700;48.222;16.342;2022-10-17T10:05:38;25.90;99.90
17170;DHT22;8700;48.222;16.342;2022-10-17T10:09:00;25.00;99.90
17170;DHT22;8700;48.222;16.342;2022-10-17T10:12:26;25.00;99.90
17170;DHT22;8700;48.222;16.342;2022-10-17T10:15:49;26.20;99.90
17170;DHT22;8700;48.222;16.342;2022-10-17T10:19:20;25.80;99.90
17170;DHT22;8700;48.222;16.342;2022-10-17T10:23:04;25.30;99.90
17170;DHT22;8700;48.222;16.342;2022-10-17T10:26:28;25.10;99.90
17170;DHT22;8700;48.222;16.342;2022-10-17T10:29:51;25.80;99.90
17170;DHT22;8700;48.222;16.342;2022-10-17T10:33:13;25.80;99.90
17170;DHT22;8700;48.222;16.342;2022-10-17T10:36:48;26.30;99.90
17170;DHT22;8700;48.222;16.342;2022-10-17T10:40:17;26.60;99.90
17170;DHT22;8700;48.222;16.342;2022-10-17T10:43:42;27.20;99.90
17170;DHT22;8700;48.222;16.342;2022-10-17T10:47:22;27.00;99.90
17170;DHT22;8700;48.222;16.342;2022-10-17T10:50:47;26.80;99.90
17170;DHT22;8700;48.222;16.342;2022-10-17T10:54:13;26.90;99.90
17170;DHT22;8700;48.222;16.342;2022-10-17T10:57:38;26.50;99.90
17170;DHT22;8700;48.222;16.342;2022-10-17T11:01:10;26.60;99.90
17170;DHT22;8700;48.222;16.342;2022-10-17T11:04:36;27.10;99.90
17170;DHT22;8700;48.222;16.342;2022-10-17T11:08:05;27.20;99.90
17170;DHT22;8700;48.222;16.342;2022-10-17T11:11:36;28.00;99.90
17170;DHT22;8700;48.222;16.342;2022-10-17T11:15:06;27.50;99.90
17170;DHT22;8700;48.222;16.342;2022-10-17T11:18:33;27.60;99.90
17170;DHT22;8700;48.222;16.342;2022-10-17T11:22:01;27.30;99.90
17170;DHT22;8700;48.222;16.342;2022-10-17T11:25:31;27.10;99.90
17170;DHT22;8700;48.222;16.342;2022-10-17T11:28:55;27.50;99.90
17170;DHT22;8700;48.222;16.342;2022-10-17T11:32:21;26.70;99.90
17170;DHT22;8700;48.222;16.342;2022-10-17T11:35:46;26.90;99.90
17170;DHT22;8700;48.222;16.342;2022-10-17T11:39:15;27.00;99.90
17170;DHT22;8700;48.222;16.342;2022-10-17T11:42:40;26.80;99.90
17170;DHT22;8700;48.222;16.342;2022-10-17T11:46:12;26.40;99.90
17170;DHT22;8700;48.222;16.342;2022-10-17T11:49:37;26.90;99.90
17170;DHT22;8700;48.222;16.342;2022-10-17T11:53:02;27.10;99.90
17170;DHT22;8700;48.222;16.342;2022-10-17T11:56:28;26.00;99.90
17170;DHT22;8700;48.222;16.342;2022-10-17T11:59:59;24.60;99.90
17170;DHT22;8700;48.222;16.342;2022-10-17T12:03:56;24.30;99.90
17170;DHT22;8700;48.222;16.342;2022-10-17T12:07:26;24.40;99.90
17170;DHT22;8700;48.222;16.342;2022-10-17T12:10:53;24.20;99.90
17170;DHT22;8700;48.222;16.342;2022-10-17T12:14:36;24.00;99.90
17170;DHT22;8700;48.222;16.342;2022-10-17T12:17:59;24.00;99.90
17170;DHT22;8700;48.222;16.342;2022-10-17T12:21:25;24.20;99.90
17170;DHT22;8700;48.222;16.342;2022-10-17T12:24:58;24.10;99.90
17170;DHT22;8700;48.222;16.342;2022-10-17T12:28:25;23.90;99.90
17170;DHT22;8700;48.222;16.342;2022-10-17T12:31:47;23.50;99.90
17170;DHT22;8700;48.222;16.342;2022-10-17T12:35:18;23.60;99.90
17170;DHT22;8700;48.222;16.342;2022-10-17T12:38:42;24.00;99.90
17170;DHT22;8700;48.222;16.342;2022-10-17T12:42:30;24.10;99.90
17170;DHT22;8700;48.222;16.342;2022-10-17T12:45:53;23.80;99.90
17170;DHT22;8700;48.222;16.342;2022-10-17T12:49:40;23.90;99.90
17170;DHT22;8700;48.222;16.342;2022-10-17T12:53:04;23.90;99.90
17170;DHT22;8700;48.222;16.342;2022-10-17T12:56:35;24.20;99.90
17170;DHT22;8700;48.222;16.342;2022-10-17T12:59:57;24.20;99.90
17170;DHT22;8700;48.222;16.342;2022-10-17T13:03:20;24.00;99.90
17170;DHT22;8700;48.222;16.342;2022-10-17T13:06:44;24.00;99.90
17170;DHT22;8700;48.222;16.342;2022-10-17T13:10:20;24.30;99.90
17170;DHT22;8700;48.222;16.342;2022-10-17T13:13:45;24.00;99.90
17170;DHT22;8700;48.222;16.342;2022-10-17T13:17:21;24.10;99.90
17170;DHT22;8700;48.222;16.342;2022-10-17T13:20:43;23.90;99.90
17170;DHT22;8700;48.222;16.342;2022-10-17T13:24:22;24.20;99.90
17170;DHT22;8700;48.222;16.342;2022-10-17T13:27:49;24.00;99.90
17170;DHT22;8700;48.222;16.342;2022-10-17T13:31:29;24.20;99.90
17170;DHT22;8700;48.222;16.342;2022-10-17T13:35:08;24.40;99.90
17170;DHT22;8700;48.222;16.342;2022-10-17T13:38:32;24.10;99.90
17170;DHT22;8700;48.222;16.342;2022-10-17T13:41:55;24.30;99.90
17170;DHT22;8700;48.222;16.342;2022-10-17T13:45:21;24.50;99.90
17170;DHT22;8700;48.222;16.342;2022-10-17T13:48:45;24.70;99.90
17170;DHT22;8700;48.222;16.342;2022-10-17T13:52:16;24.90;99.90
17170;DHT22;8700;48.222;16.342;2022-10-17T13:55:38;24.30;99.90
17170;DHT22;8700;48.222;16.342;2022-10-17T13:59:08;24.30;99.90
17170;DHT22;8700;48.222;16.342;2022-10-17T14:02:34;24.20;99.90
17170;DHT22;8700;48.222;16.342;2022-10-17T14:09:45;24.30;99.90
17170;DHT22;8700;48.222;16.342;2022-10-17T14:13:13;24.00;99.90
17170;DHT22;8700;48.222;16.342;2022-10-17T14:16:39;23.90;99.90
17170;DHT22;8700;48.222;16.342;2022-10-17T14:20:03;23.80;99.90
17170;DHT22;8700;48.222;16.342;2022-10-17T14:23:32;23.80;99.90
17170;DHT22;8700;48.222;16.342;2022-10-17T14:26:55;23.70;99.90
17170;DHT22;8700;48.222;16.342;2022-10-17T14:30:31;23.50;99.90
17170;DHT22;8700;48.222;16.342;2022-10-17T14:33:54;23.60;99.90
17170;DHT22;8700;48.222;16.342;2022-10-17T14:37:30;23.70;99.90
17170;DHT22;8700;48.222;16.342;2022-10-17T14:40:57;23.70;99.90
17170;DHT22;8700;48.222;16.342;2022-10-17T14:44:22;23.60;99.90
17170;DHT22;8700;48.222;16.342;2022-10-17T14:47:47;23.50;99.90
17170;DHT22;8700;48.222;16.342;2022-10-17T14:51:11;23.40;99.90
17170;DHT22;8700;48.222;16.342;2022-10-17T14:54:34;23.20;99.90
17170;DHT22;8700;48.222;16.342;2022-10-17T14:57:57;23.20;99.90
17170;DHT22;8700;48.222;16.342;2022-10-17T15:01:19;23.00;99.90
17170;DHT22;8700;48.222;16.342;2022-10-17T15:04:40;22.90;99.90
17170;DHT22;8700;48.222;16.342;2022-10-17T15:08:02;23.10;99.90
17170;DHT22;8700;48.222;16.342;2022-10-17T15:11:26;23.30;99.90
17170;DHT22;8700;48.222;16.342;2022-10-17T15:14:49;23.00;99.90
17170;DHT22;8700;48.222;16.342;2022-10-17T15:18:11;22.80;99.90
17170;DHT22;8700;48.222;16.342;2022-10-17T15:21:33;22.70;99.90
17170;DHT22;8700;48.222;16.342;2022-10-17T15:24:55;22.70;99.90
17170;DHT22;8700;48.222;16.342;2022-10-17T15:28:17;22.60;99.90
17170;DHT22;8700;48.222;16.342;2022-10-17T15:31:39;22.60;99.90
17170;DHT22;8700;48.222;16.342;2022-10-17T15:35:01;22.50;99.90
17170;DHT22;8700;48.222;16.342;2022-10-17T15:38:22;22.50;99.90
17170;DHT22;8700;48.222;16.342;2022-10-17T15:41:43;22.40;99.90
17170;DHT22;8700;48.222;16.342;2022-10-17T15:45:08;22.30;99.90
17170;DHT22;8700;48.222;16.342;2022-10-17T15:48:31;22.10;99.90
17170;DHT22;8700;48.222;16.342;2022-10-17T15:51:53;22.10;99.90
17170;DHT22;8700;48.222;16.342;2022-10-17T15:55:14;21.80;99.90
17170;DHT22;8700;48.222;16.342;2022-10-17T15:58:38;21.80;99.90
17170;DHT22;8700;48.222;16.342;2022-10-17T16:02:00;21.80;99.90
17170;DHT22;8700;48.222;16.342;2022-10-17T16:05:24;21.60;99.90
17170;DHT22;8700;48.222;16.342;2022-10-17T16:08:47;21.60;99.90
17170;DHT22;8700;48.222;16.342;2022-10-17T16:12:14;21.50;99.90
17170;DHT22;8700;48.222;16.342;2022-10-17T16:15:36;21.50;99.90
17170;DHT22;8700;48.222;16.342;2022-10-17T16:18:58;21.30;99.90
17170;DHT22;8700;48.222;16.342;2022-10-17T16:22:26;21.30;99.90
17170;DHT22;8700;48.222;16.342;2022-10-17T16:25:50;21.10;99.90
17170;DHT22;8700;48.222;16.342;2022-10-17T16:29:12;21.10;99.90
17170;DHT22;8700;48.222;16.342;2022-10-17T16:32:33;21.10;99.90
17170;DHT22;8700;48.222;16.342;2022-10-17T16:35:54;21.00;99.90
17170;DHT22;8700;48.222;16.342;2022-10-17T16:39:17;21.00;99.90
17170;DHT22;8700;48.222;16.342;2022-10-17T16:42:39;21.00;99.90
17170;DHT22;8700;48.222;16.342;2022-10-17T16:46:02;20.90;99.90
17170;DHT22;8700;48.222;16.342;2022-10-17T16:49:23;20.80;99.90
17170;DHT22;8700;48.222;16.342;2022-10-17T16:52:44;20.90;99.90
17170;DHT22;8700;48.222;16.342;2022-10-17T16:56:09;20.90;99.90
17170;DHT22;8700;48.222;16.342;2022-10-17T16:59:30;20.70;99.90
17170;DHT22;8700;48.222;16.342;2022-10-17T17:02:52;20.50;99.90
17170;DHT22;8700;48.222;16.342;2022-10-17T17:06:15;20.60;99.90
17170;DHT22;8700;48.222;16.342;2022-10-17T17:09:38;20.60;99.90
17170;DHT22;8700;48.222;16.342;2022-10-17T17:13:00;20.60;99.90
17170;DHT22;8700;48.222;16.342;2022-10-17T17:16:25;20.60;99.90
17170;DHT22;8700;48.222;16.342;2022-10-17T17:19:46;20.60;99.90
17170;DHT22;8700;48.222;16.342;2022-10-17T17:23:08;20.50;99.90
17170;DHT22;8700;48.222;16.342;2022-10-17T17:26:32;20.40;99.90
17170;DHT22;8700;48.222;16.342;2022-10-17T17:29:56;20.40;99.90
17170;DHT22;8700;48.222;16.342;2022-10-17T17:33:17;20.30;99.90
17170;DHT22;8700;48.222;16.342;2022-10-17T17:36:39;20.10;99.90
17170;DHT22;8700;48.222;16.342;2022-10-17T17:40:00;20.20;99.90
17170;DHT22;8700;48.222;16.342;2022-10-17T17:43:22;20.20;99.90
17170;DHT22;8700;48.222;16.342;2022-10-17T17:46:45;20.00;99.90
17170;DHT22;8700;48.222;16.342;2022-10-17T17:50:10;20.10;99.90
17170;DHT22;8700;48.222;16.342;2022-10-17T17:53:32;20.10;99.90
17170;DHT22;8700;48.222;16.342;2022-10-17T17:56:53;20.10;99.90
17170;DHT22;8700;48.222;16.342;2022-10-17T18:00:14;20.00;99.90
17170;DHT22;8700;48.222;16.342;2022-10-17T18:03:39;20.10;99.90
17170;DHT22;8700;48.222;16.342;2022-10-17T18:07:00;20.00;99.90
17170;DHT22;8700;48.222;16.342;2022-10-17T18:10:26;19.90;99.90
17170;DHT22;8700;48.222;16.342;2022-10-17T18:13:53;19.80;99.90
17170;DHT22;8700;48.222;16.342;2022-10-17T18:17:14;19.80;99.90
17170;DHT22;8700;48.222;16.342;2022-10-17T18:20:40;19.80;99.90
17170;DHT22;8700;48.222;16.342;2022-10-17T18:24:02;19.60;99.90
17170;DHT22;8700;48.222;16.342;2022-10-17T18:27:24;19.50;99.90
17170;DHT22;8700;48.222;16.342;2022-10-17T18:30:46;19.60;99.90
17170;DHT22;8700;48.222;16.342;2022-10-17T18:34:08;19.50;99.90
17170;DHT22;8700;48.222;16.342;2022-10-17T18:37:31;19.50;99.90
17170;DHT22;8700;48.222;16.342;2022-10-17T18:41:01;19.40;99.90
17170;DHT22;8700;48.222;16.342;2022-10-17T18:44:23;19.40;99.90
17170;DHT22;8700;48.222;16.342;2022-10-17T18:47:45;19.30;99.90
17170;DHT22;8700;48.222;16.342;2022-10-17T18:51:07;19.40;99.90
17170;DHT22;8700;48.222;16.342;2022-10-17T18:54:30;19.40;99.90
17170;DHT22;8700;48.222;16.342;2022-10-17T18:57:52;19.30;99.90
17170;DHT22;8700;48.222;16.342;2022-10-17T19:01:17;19.20;99.90
17170;DHT22;8700;48.222;16.342;2022-10-17T19:04:38;19.20;99.90
17170;DHT22;8700;48.222;16.342;2022-10-17T19:07:59;19.20;99.90
17170;DHT22;8700;48.222;16.342;2022-10-17T19:11:24;19.20;99.90
17170;DHT22;8700;48.222;16.342;2022-10-17T19:14:47;19.10;99.90
17170;DHT22;8700;48.222;16.342;2022-10-17T19:18:09;19.20;99.90
17170;DHT22;8700;48.222;16.342;2022-10-17T19:21:30;19.20;99.90
17170;DHT22;8700;48.222;16.342;2022-10-17T19:24:51;19.10;99.90
17170;DHT22;8700;48.222;16.342;2022-10-17T19:28:14;19.10;99.90
17170;DHT22;8700;48.222;16.342;2022-10-17T19:31:35;19.00;99.90
17170;DHT22;8700;48.222;16.342;2022-10-17T19:34:57;19.10;99.90
17170;DHT22;8700;48.222;16.342;2022-10-17T19:38:19;19.00;99.90
17170;DHT22;8700;48.222;16.342;2022-10-17T19:41:41;19.00;99.90
17170;DHT22;8700;48.222;16.342;2022-10-17T19:45:05;18.90;99.90
17170;DHT22;8700;48.222;16.342;2022-10-17T19:48:30;18.90;99.90
17170;DHT22;8700;48.222;16.342;2022-10-17T19:51:52;18.90;99.90
17170;DHT22;8700;48.222;16.342;2022-10-17T19:55:13;18.90;99.90
17170;DHT22;8700;48.222;16.342;2022-10-17T19:58:35;18.80;99.90
17170;DHT22;8700;48.222;16.342;2022-10-17T20:02:04;18.80;99.90
17170;DHT22;8700;48.222;16.342;2022-10-17T20:05:26;18.70;99.90
17170;DHT22;8700;48.222;16.342;2022-10-17T20:08:47;18.70;99.90
17170;DHT22;8700;48.222;16.342;2022-10-17T20:12:09;18.60;99.90
17170;DHT22;8700;48.222;16.342;2022-10-17T20:15:30;18.70;99.90
17170;DHT22;8700;48.222;16.342;2022-10-17T20:18:55;18.70;99.90
17170;DHT22;8700;48.222;16.342;2022-10-17T20:22:16;18.70;99.90
17170;DHT22;8700;48.222;16.342;2022-10-17T20:25:38;18.60;99.90
17170;DHT22;8700;48.222;16.342;2022-10-17T20:28:59;18.60;99.90
17170;DHT22;8700;48.222;16.342;2022-10-17T20:32:21;18.60;99.90
17170;DHT22;8700;48.222;16.342;2022-10-17T20:35:43;18.60;99.90
17170;DHT22;8700;48.222;16.342;2022-10-17T20:39:05;18.60;99.90
17170;DHT22;8700;48.222;16.342;2022-10-17T20:42:27;18.50;99.90
17170;DHT22;8700;48.222;16.342;2022-10-17T20:45:49;18.50;99.90
17170;DHT22;8700;48.222;16.342;2022-10-17T20:49:13;18.40;99.90
17170;DHT22;8700;48.222;16.342;2022-10-17T20:52:36;18.50;99.90
17170;DHT22;8700;48.222;16.342;2022-10-17T20:56:01;18.40;99.90
17170;DHT22;8700;48.222;16.342;2022-10-17T20:59:23;18.50;99.90
17170;DHT22;8700;48.222;16.342;2022-10-17T21:02:44;18.40;99.90
17170;DHT22;8700;48.222;16.342;2022-10-17T21:06:07;18.40;99.90
17170;DHT22;8700;48.222;16.342;2022-10-17T21:09:30;18.40;99.90
17170;DHT22;8700;48.222;16.342;2022-10-17T21:12:52;18.40;99.90
17170;DHT22;8700;48.222;16.342;2022-10-17T21:16:15;18.30;99.90
17170;DHT22;8700;48.222;16.342;2022-10-17T21:19:37;18.30;99.90
17170;DHT22;8700;48.222;16.342;2022-10-17T21:22:58;18.20;99.90
17170;DHT22;8700;48.222;16.342;2022-10-17T21:26:22;18.20;99.90
17170;DHT22;8700;48.222;16.342;2022-10-17T21:29:43;18.20;99.90
17170;DHT22;8700;48.222;16.342;2022-10-17T21:33:04;18.20;99.90
17170;DHT22;8700;48.222;16.342;2022-10-17T21:36:27;18.20;99.90